createdAt,value
2022-11-08T00:02:27.733Z,6.49
2022-11-08T00:04:55.557Z,6.49
2022-11-08T00:07:42.215Z,6.49
2022-11-08T00:10:27.859Z,6.51
2022-11-08T00:13:13.004Z,6.44
2022-11-08T00:15:40.722Z,6.42
2022-11-08T00:18:09.085Z,6.36
2022-11-08T00:20:36.909Z,6.37
2022-11-08T00:23:06.036Z,6.40
2022-11-08T00:25:33.779Z,6.43
2022-11-08T00:28:01.563Z,10.04
2022-11-08T00:30:29.517Z,11.11
2022-11-08T00:32:57.335Z,11.36
2022-11-08T00:35:25.286Z,11.38
2022-11-08T00:37:53.123Z,11.13
2022-11-08T00:40:22.242Z,9.92
2022-11-08T00:42:50.098Z,8.63
2022-11-08T00:45:17.850Z,7.70
2022-11-08T00:47:45.617Z,7.13
2022-11-08T00:50:13.436Z,6.84
2022-11-08T00:52:41.274Z,6.54
2022-11-08T00:55:09.466Z,6.40
2022-11-08T00:57:53.981Z,6.25
2022-11-08T01:00:26.696Z,6.17
2022-11-08T01:03:14.621Z,6.11
2022-11-08T01:05:45.924Z,6.08
2022-11-08T01:08:14.840Z,6.09
2022-11-08T01:10:57.848Z,6.11
2022-11-08T01:13:27.030Z,6.06
2022-11-08T01:15:54.869Z,6.03
2022-11-08T01:18:22.693Z,6.06
2022-11-08T01:20:51.392Z,6.05
2022-11-08T01:23:19.737Z,6.11
2022-11-08T01:25:48.682Z,6.14
2022-11-08T01:28:17.164Z,6.11
2022-11-08T01:30:47.350Z,6.10
2022-11-08T01:33:16.110Z,6.05
2022-11-08T01:35:46.176Z,6.00
2022-11-08T01:38:14.512Z,5.99
2022-11-08T01:40:48.759Z,5.97
2022-11-08T01:43:36.874Z,5.90
2022-11-08T01:46:37.442Z,5.85
2022-11-08T01:49:33.843Z,5.81
2022-11-08T01:52:08.993Z,5.72
2022-11-08T01:54:43.109Z,5.82
2022-11-08T01:57:15.905Z,6.01
2022-11-08T01:59:46.766Z,5.96
2022-11-08T02:02:15.088Z,5.93
2022-11-08T02:04:47.260Z,5.86
2022-11-08T02:07:15.371Z,5.76
2022-11-08T02:09:46.084Z,5.89
2022-11-08T02:12:15.674Z,5.64
2022-11-08T02:14:46.294Z,5.56
2022-11-08T02:17:14.653Z,5.54
2022-11-08T02:19:46.330Z,5.51
2022-11-08T02:22:22.013Z,5.42
2022-11-08T02:24:51.210Z,5.32
2022-11-08T02:27:19.362Z,5.33
2022-11-08T02:29:47.437Z,5.35
2022-11-08T02:32:15.980Z,5.37
2022-11-08T02:34:47.017Z,5.38
2022-11-08T02:37:17.818Z,5.24
2022-11-08T02:39:46.575Z,5.20
2022-11-08T02:42:18.546Z,5.21
2022-11-08T02:44:46.756Z,5.12
2022-11-08T02:47:14.961Z,4.99
2022-11-08T02:49:43.211Z,4.95
2022-11-08T02:52:11.215Z,4.89
2022-11-08T02:54:39.543Z,4.89
2022-11-08T02:57:07.658Z,4.89
2022-11-08T02:59:36.930Z,4.86
2022-11-08T03:02:04.954Z,4.75
2022-11-08T03:04:33.104Z,4.55
2022-11-08T03:07:01.016Z,4.60
2022-11-08T03:09:29.057Z,4.64
2022-11-08T03:11:57.033Z,4.51
2022-11-08T03:14:24.882Z,4.28
2022-11-08T03:16:54.190Z,4.33
2022-11-08T03:19:22.097Z,4.27
2022-11-08T03:21:50.144Z,4.10
2022-11-08T03:24:18.057Z,4.04
2022-11-08T03:26:45.951Z,4.06
2022-11-08T03:29:14.043Z,4.18
2022-11-08T03:31:41.954Z,4.14
2022-11-08T03:34:12.028Z,3.92
2022-11-08T03:36:39.943Z,3.68
2022-11-08T03:39:07.799Z,3.76
2022-11-08T03:41:35.956Z,3.84
2022-11-08T03:44:04.027Z,3.98
2022-11-08T03:46:32.013Z,3.86
2022-11-08T03:48:59.877Z,3.78
2022-11-08T03:51:29.142Z,3.80
2022-11-08T03:53:57.053Z,3.77
2022-11-08T03:56:25.018Z,3.56
2022-11-08T03:58:52.916Z,3.57
2022-11-08T04:01:20.969Z,3.92
2022-11-08T04:03:49.047Z,4.13
2022-11-08T04:06:17.113Z,4.36
2022-11-08T04:08:46.405Z,4.38
2022-11-08T04:11:34.129Z,4.48
2022-11-08T04:14:19.728Z,4.80
2022-11-08T04:16:47.646Z,4.78
2022-11-08T04:19:33.396Z,4.70
2022-11-08T04:22:01.317Z,4.37
2022-11-08T04:24:32.929Z,4.06
2022-11-08T04:27:01.475Z,3.94
2022-11-08T04:29:32.128Z,3.98
2022-11-08T04:32:00.086Z,3.79
2022-11-08T04:34:28.192Z,3.80
2022-11-08T04:36:56.268Z,3.81
2022-11-08T04:39:24.062Z,3.96
2022-11-08T04:41:56.483Z,4.10
2022-11-08T04:44:27.035Z,4.23
2022-11-08T04:46:55.040Z,4.34
2022-11-08T04:49:22.989Z,4.50
2022-11-08T04:51:50.852Z,4.72
2022-11-08T04:54:18.712Z,4.93
2022-11-08T04:56:46.696Z,5.12
2022-11-08T04:59:15.961Z,5.29
2022-11-08T05:01:44.260Z,5.31
2022-11-08T05:04:12.462Z,5.44
2022-11-08T05:06:40.331Z,5.45
2022-11-08T05:09:08.638Z,5.60
2022-11-08T05:11:36.468Z,5.77
2022-11-08T05:14:04.412Z,5.68
2022-11-08T05:16:33.864Z,5.71
2022-11-08T05:19:02.057Z,5.92
2022-11-08T05:21:47.755Z,6.09
2022-11-08T05:24:18.313Z,6.02
2022-11-08T05:26:48.141Z,5.90
2022-11-08T05:29:17.072Z,5.75
2022-11-08T05:31:46.314Z,5.65
2022-11-08T05:34:14.271Z,5.54
2022-11-08T05:36:42.177Z,5.50
2022-11-08T05:39:10.233Z,5.36
2022-11-08T05:41:38.102Z,5.34
2022-11-08T05:44:06.205Z,5.41
2022-11-08T05:46:34.091Z,5.48
2022-11-08T05:49:03.745Z,5.55
2022-11-08T05:51:33.130Z,5.61
2022-11-08T05:54:01.070Z,5.76
2022-11-08T05:56:29.182Z,5.77
2022-11-08T05:58:57.173Z,5.66
2022-11-08T06:01:25.209Z,5.62
2022-11-08T06:03:53.393Z,5.60
2022-11-08T06:06:23.911Z,5.66
2022-11-08T06:08:54.817Z,5.65
2022-11-08T06:11:24.843Z,5.61
2022-11-08T06:13:53.761Z,5.50
2022-11-08T06:16:23.413Z,5.18
2022-11-08T06:18:51.282Z,4.90
2022-11-08T06:21:20.691Z,4.53
2022-11-08T06:23:53.050Z,4.16
2022-11-08T06:26:23.154Z,4.01
2022-11-08T06:28:51.131Z,3.83
2022-11-08T06:31:19.054Z,3.75
2022-11-08T06:33:46.991Z,3.68
2022-11-08T06:36:14.821Z,3.58
2022-11-08T06:38:42.710Z,3.63
2022-11-08T06:41:18.322Z,3.67
2022-11-08T06:43:46.112Z,3.80
2022-11-08T06:46:14.028Z,3.98
2022-11-08T06:48:42.362Z,4.13
2022-11-08T06:51:10.322Z,4.21
2022-11-08T06:53:38.385Z,4.31
2022-11-08T06:56:06.648Z,4.23
2022-11-08T06:58:36.100Z,4.43
2022-11-08T07:01:05.269Z,4.60
2022-11-08T07:03:34.180Z,4.57
2022-11-08T07:06:03.908Z,4.41
2022-11-08T07:08:32.009Z,4.47
2022-11-08T07:11:00.505Z,4.60
2022-11-08T07:13:28.511Z,4.78
2022-11-08T07:16:00.744Z,4.99
2022-11-08T07:18:29.029Z,5.17
2022-11-08T07:21:00.267Z,5.40
2022-11-08T07:23:28.196Z,5.61
2022-11-08T07:25:56.519Z,6.05
2022-11-08T07:28:24.407Z,6.22
2022-11-08T07:30:52.268Z,6.41
2022-11-08T07:33:22.148Z,6.67
2022-11-08T07:35:50.158Z,6.70
2022-11-08T07:38:17.988Z,6.72
2022-11-08T07:40:45.846Z,7.06
2022-11-08T07:43:13.698Z,7.23
2022-11-08T07:45:43.958Z,7.38
2022-11-08T07:48:13.949Z,7.45
2022-11-08T07:50:43.614Z,7.62
2022-11-08T07:53:11.772Z,7.94
2022-11-08T07:55:40.789Z,8.16
2022-11-08T07:58:10.960Z,8.21
2022-11-08T08:00:40.370Z,8.44
2022-11-08T08:03:10.003Z,8.70
2022-11-08T08:05:39.510Z,8.77
2022-11-08T08:08:09.528Z,9.00
2022-11-08T08:10:37.917Z,9.10
2022-11-08T08:13:07.392Z,9.83
2022-11-08T08:15:35.767Z,10.50
2022-11-08T08:18:05.267Z,10.90
2022-11-08T08:20:33.360Z,11.23
2022-11-08T08:23:01.599Z,11.60
2022-11-08T08:25:31.453Z,11.68
2022-11-08T08:28:01.821Z,11.65
2022-11-08T08:30:31.305Z,11.54
2022-11-08T08:33:26.908Z,11.76
2022-11-08T08:35:53.529Z,12.28
2022-11-08T08:38:21.725Z,12.59
2022-11-08T08:40:51.500Z,12.87
2022-11-08T08:43:20.027Z,12.72
2022-11-08T08:45:48.777Z,12.87
2022-11-08T08:48:16.704Z,13.07
2022-11-08T08:50:44.536Z,13.05
2022-11-08T08:53:12.403Z,12.91
2022-11-08T08:55:41.785Z,13.14
2022-11-08T08:58:11.926Z,13.32
2022-11-08T09:03:29.010Z,13.29
2022-11-08T09:05:59.073Z,13.60
2022-11-08T09:08:27.251Z,13.41
2022-11-08T09:10:55.794Z,13.38
2022-11-08T09:13:26.759Z,13.55
2022-11-08T09:15:55.205Z,13.47
2022-11-08T09:18:23.662Z,13.39
2022-11-08T09:20:51.547Z,13.53
2022-11-08T09:23:19.710Z,13.67
2022-11-08T09:25:47.828Z,13.80
2022-11-08T09:28:15.918Z,13.90
2022-11-08T09:30:45.191Z,13.88
2022-11-08T09:33:13.247Z,13.64
2022-11-08T09:35:41.053Z,13.47
2022-11-08T09:38:08.847Z,13.25
2022-11-08T09:40:40.803Z,13.21
2022-11-08T09:43:30.149Z,13.14
2022-11-08T09:45:59.514Z,13.08
2022-11-08T09:48:31.098Z,13.08
2022-11-08T09:51:04.634Z,13.13
2022-11-08T09:53:39.868Z,13.14
2022-11-08T09:56:14.230Z,13.37
2022-11-08T09:58:49.606Z,13.63
2022-11-08T10:01:21.188Z,14.07
2022-11-08T10:03:56.155Z,14.47
2022-11-08T10:06:50.737Z,14.59
2022-11-08T10:09:35.088Z,14.87
2022-11-08T10:12:18.025Z,14.69
2022-11-08T10:15:03.824Z,14.40
2022-11-08T10:17:49.951Z,14.22
2022-11-08T10:20:27.549Z,13.89
2022-11-08T10:23:03.453Z,13.76
2022-11-08T10:25:37.382Z,13.63
2022-11-08T10:28:07.747Z,13.53
2022-11-08T10:30:39.660Z,13.39
2022-11-08T10:33:17.481Z,13.28
2022-11-08T10:35:49.391Z,13.19
2022-11-08T10:38:21.336Z,13.19
2022-11-08T10:40:57.230Z,13.24
2022-11-08T10:43:33.369Z,13.31
2022-11-08T10:46:01.121Z,13.51
2022-11-08T10:48:33.797Z,13.81
2022-11-08T10:51:01.563Z,14.11
2022-11-08T10:53:31.735Z,14.44
2022-11-08T10:56:04.282Z,14.70
2022-11-08T10:58:38.097Z,14.86
2022-11-08T11:01:14.527Z,15.04
2022-11-08T11:03:44.171Z,15.27
2022-11-08T11:06:24.835Z,15.51
2022-11-08T11:08:56.786Z,15.51
2022-11-08T11:11:27.693Z,15.92
2022-11-08T11:14:18.126Z,15.97
2022-11-08T11:16:56.482Z,16.22
2022-11-08T11:19:27.208Z,16.35
2022-11-08T11:21:58.485Z,16.48
2022-11-08T11:24:26.977Z,16.51
2022-11-08T11:27:04.261Z,16.67
2022-11-08T11:29:33.802Z,16.68
2022-11-08T11:32:24.163Z,16.51
2022-11-08T11:34:57.021Z,16.55
2022-11-08T11:37:40.285Z,16.47
2022-11-08T11:40:17.311Z,16.60
2022-11-08T11:42:55.462Z,16.82
2022-11-08T11:45:29.998Z,16.93
2022-11-08T11:47:59.693Z,16.83
2022-11-08T11:50:34.449Z,16.87
2022-11-08T11:53:05.670Z,16.83
2022-11-08T11:55:47.437Z,16.89
2022-11-08T11:58:28.148Z,16.91
2022-11-08T12:01:00.510Z,16.81
2022-11-08T12:03:52.101Z,16.70
2022-11-08T12:06:33.493Z,16.64
2022-11-08T12:09:14.146Z,16.56
2022-11-08T12:11:53.073Z,16.58
2022-11-08T12:14:35.551Z,16.40
2022-11-08T12:17:20.572Z,16.38
2022-11-08T12:19:59.164Z,16.51
2022-11-08T12:22:46.020Z,16.51
2022-11-08T12:25:21.357Z,16.41
2022-11-08T12:27:52.809Z,16.48
2022-11-08T12:30:24.995Z,16.34
2022-11-08T12:33:12.702Z,16.35
2022-11-08T12:35:55.307Z,16.42
2022-11-08T12:38:33.264Z,16.49
2022-11-08T12:41:11.958Z,16.53
2022-11-08T12:44:00.520Z,16.42
2022-11-08T12:46:33.586Z,16.45
2022-11-08T12:49:19.728Z,16.57
2022-11-08T12:52:03.040Z,16.41
2022-11-08T12:54:36.661Z,16.56
2022-11-08T12:57:10.418Z,16.67
2022-11-08T12:59:42.528Z,16.40
2022-11-08T13:02:17.976Z,16.15
2022-11-08T13:04:56.885Z,16.12
2022-11-08T13:07:39.171Z,15.97
2022-11-08T13:10:16.644Z,16.14
2022-11-08T13:13:08.369Z,16.07
2022-11-08T13:15:36.353Z,16.36
2022-11-08T13:18:26.036Z,16.46
2022-11-08T13:20:54.142Z,16.48
2022-11-08T13:23:30.517Z,16.30
2022-11-08T13:26:21.442Z,16.60
2022-11-08T13:28:49.714Z,16.80
2022-11-08T13:31:27.269Z,17.19
2022-11-08T13:34:13.012Z,16.74
2022-11-08T13:36:53.460Z,16.66
2022-11-08T13:39:51.319Z,16.57
2022-11-08T13:42:38.956Z,16.49
2022-11-08T13:45:26.820Z,16.64
2022-11-08T13:47:57.894Z,16.32
2022-11-08T13:50:54.980Z,15.91
2022-11-08T13:53:44.616Z,15.64
2022-11-08T13:56:43.420Z,15.76
2022-11-08T13:59:50.928Z,15.87
2022-11-08T14:02:39.534Z,16.01
2022-11-08T14:05:28.245Z,15.69
2022-11-08T14:08:24.478Z,15.37
2022-11-08T14:11:32.047Z,15.15
2022-11-08T14:14:24.729Z,14.91
2022-11-08T14:17:08.372Z,14.98
2022-11-08T14:19:40.418Z,15.33
2022-11-08T14:22:17.309Z,15.71
2022-11-08T14:24:45.424Z,15.60
2022-11-08T14:27:15.785Z,15.30
2022-11-08T14:29:44.142Z,15.04
2022-11-08T14:32:18.153Z,14.83
2022-11-08T14:34:50.283Z,14.96
2022-11-08T14:37:24.103Z,15.22
2022-11-08T14:39:53.301Z,15.50
2022-11-08T14:42:24.353Z,15.59
2022-11-08T14:44:55.287Z,15.64
2022-11-08T14:47:25.889Z,15.59
2022-11-08T14:49:55.143Z,15.46
2022-11-08T14:52:27.358Z,15.35
2022-11-08T14:55:06.006Z,15.18
2022-11-08T14:57:36.499Z,14.99
2022-11-08T15:00:14.604Z,14.86
2022-11-08T15:02:45.697Z,14.71
2022-11-08T15:05:41.406Z,14.54
2022-11-08T15:08:21.462Z,14.37
2022-11-08T15:10:55.408Z,14.22
2022-11-08T15:13:23.738Z,14.00
2022-11-08T15:15:56.548Z,13.74
2022-11-08T15:18:28.305Z,13.58
2022-11-08T15:21:02.745Z,13.35
2022-11-08T15:23:44.838Z,13.15
2022-11-08T15:26:23.667Z,12.98
2022-11-08T15:28:59.317Z,12.82
2022-11-08T15:31:29.767Z,12.67
2022-11-08T15:33:58.391Z,12.50
2022-11-08T15:36:33.320Z,12.24
2022-11-08T15:39:02.169Z,12.06
2022-11-08T15:41:34.339Z,11.88
2022-11-08T15:44:17.526Z,11.70
2022-11-08T15:46:45.682Z,11.62
2022-11-08T15:49:21.042Z,11.56
2022-11-08T15:51:52.663Z,11.44
2022-11-08T15:54:22.209Z,11.35
2022-11-08T15:56:53.275Z,11.23
2022-11-08T15:59:26.612Z,11.14
2022-11-08T16:01:56.411Z,11.12
2022-11-08T16:04:24.598Z,11.06
2022-11-08T16:06:54.092Z,10.94
2022-11-08T16:09:22.173Z,10.88
2022-11-08T16:11:51.534Z,10.85
2022-11-08T16:14:21.612Z,10.84
2022-11-08T16:16:49.874Z,10.76
2022-11-08T16:19:23.582Z,10.67
2022-11-08T16:21:53.661Z,10.58
2022-11-08T16:24:21.773Z,10.41
2022-11-08T16:26:50.185Z,10.30
2022-11-08T16:29:21.482Z,10.24
2022-11-08T16:31:50.492Z,10.06
2022-11-08T16:34:19.168Z,10.11
2022-11-08T16:36:49.358Z,10.00
2022-11-08T16:39:20.172Z,9.84
2022-11-08T16:41:48.516Z,9.83
2022-11-08T16:44:16.821Z,9.76
2022-11-08T16:46:44.905Z,9.68
2022-11-08T16:49:21.726Z,9.63
2022-11-08T16:51:50.543Z,9.60
2022-11-08T16:54:24.048Z,9.50
2022-11-08T16:57:03.376Z,9.37
2022-11-08T16:59:40.184Z,9.30
2022-11-08T17:02:20.015Z,9.27
2022-11-08T17:04:48.342Z,9.27
2022-11-08T17:07:16.513Z,9.22
2022-11-08T17:09:45.837Z,9.13
2022-11-08T17:12:13.933Z,9.03
2022-11-08T17:14:41.950Z,9.14
2022-11-08T17:17:12.195Z,9.13
2022-11-08T17:19:40.156Z,9.11
2022-11-08T17:22:08.035Z,9.10
2022-11-08T17:24:36.164Z,9.12
2022-11-08T17:27:05.776Z,9.05
2022-11-08T17:29:33.721Z,9.06
2022-11-08T17:32:01.925Z,8.97
2022-11-08T17:34:29.975Z,8.93
2022-11-08T17:36:57.778Z,8.88
2022-11-08T17:39:25.668Z,8.85
2022-11-08T17:41:53.682Z,8.80
2022-11-08T17:44:23.394Z,8.73
2022-11-08T17:46:51.343Z,8.65
2022-11-08T17:49:19.213Z,8.65
2022-11-08T17:51:47.065Z,8.63
2022-11-08T17:54:15.331Z,8.57
2022-11-08T17:56:43.209Z,8.57
2022-11-08T17:59:11.257Z,8.54
2022-11-08T18:01:40.621Z,8.53
2022-11-08T18:04:08.684Z,8.57
2022-11-08T18:06:38.827Z,8.54
2022-11-08T18:09:07.023Z,8.64
2022-11-08T18:11:36.757Z,8.70
2022-11-08T18:14:05.733Z,8.81
2022-11-08T18:16:34.276Z,8.91
2022-11-08T18:19:03.533Z,8.99
2022-11-08T18:21:31.682Z,8.95
2022-11-08T18:24:00.052Z,8.99
2022-11-08T18:26:28.569Z,9.02
2022-11-08T18:28:56.614Z,9.02
2022-11-08T18:31:24.586Z,9.06
2022-11-08T18:33:52.484Z,9.07
2022-11-08T18:36:24.210Z,9.11
2022-11-08T18:38:53.060Z,9.13
2022-11-08T18:41:22.622Z,9.14
2022-11-08T18:43:50.514Z,9.16
2022-11-08T18:46:20.286Z,9.21
2022-11-08T18:48:48.728Z,9.23
2022-11-08T18:51:18.548Z,9.25
2022-11-08T18:53:50.376Z,9.24
2022-11-08T18:56:18.245Z,9.23
2022-11-08T18:58:46.085Z,9.20
2022-11-08T19:01:14.824Z,9.26
2022-11-08T19:03:43.888Z,9.26
2022-11-08T19:06:11.954Z,9.32
2022-11-08T19:08:40.095Z,9.33
2022-11-08T19:11:11.890Z,9.27
2022-11-08T19:13:41.381Z,9.22
2022-11-08T19:16:13.085Z,9.23
2022-11-08T19:18:42.248Z,9.20
2022-11-08T19:21:13.537Z,9.18
2022-11-08T19:23:42.364Z,9.13
2022-11-08T19:26:14.850Z,9.14
2022-11-08T19:28:45.415Z,9.12
2022-11-08T19:31:14.344Z,9.12
2022-11-08T19:33:44.559Z,9.13
2022-11-08T19:36:14.692Z,9.17
2022-11-08T19:38:43.074Z,9.22
2022-11-08T19:41:14.286Z,9.22
2022-11-08T19:43:44.273Z,9.30
2022-11-08T19:46:13.944Z,9.38
2022-11-08T19:48:44.519Z,9.45
2022-11-08T19:51:14.788Z,9.47
2022-11-08T19:53:42.801Z,9.49
2022-11-08T19:56:15.026Z,9.53
2022-11-08T19:58:43.289Z,9.48
2022-11-08T20:01:12.633Z,9.55
2022-11-08T20:03:40.998Z,9.60
2022-11-08T20:06:10.697Z,9.63
2022-11-08T20:08:39.048Z,9.65
2022-11-08T20:11:16.737Z,9.65
2022-11-08T20:13:45.045Z,9.71
2022-11-08T20:16:14.465Z,9.69
2022-11-08T20:18:42.937Z,9.69
2022-11-08T20:21:12.509Z,9.65
2022-11-08T20:23:42.497Z,9.66
2022-11-08T20:26:17.373Z,9.65
2022-11-08T20:28:55.270Z,9.57
2022-11-08T20:31:25.086Z,9.47
2022-11-08T20:33:54.785Z,9.43
2022-11-08T20:36:24.438Z,9.35
2022-11-08T20:38:56.276Z,9.24
2022-11-08T20:41:29.135Z,9.21
2022-11-08T20:43:59.810Z,9.20
2022-11-08T20:46:29.515Z,9.20
2022-11-08T20:49:01.423Z,9.15
2022-11-08T20:51:30.439Z,9.11
2022-11-08T20:54:00.690Z,9.04
2022-11-08T20:56:32.597Z,9.00
2022-11-08T20:59:00.589Z,9.02
2022-11-08T21:01:32.554Z,8.99
2022-11-08T21:04:00.704Z,8.95
2022-11-08T21:06:32.973Z,8.88
2022-11-08T21:09:25.406Z,8.83
2022-11-08T21:11:52.791Z,8.74
2022-11-08T21:14:20.592Z,8.70
2022-11-08T21:17:19.595Z,8.74
2022-11-08T21:19:36.171Z,8.84
2022-11-08T21:22:16.482Z,8.77
2022-11-08T21:24:45.911Z,8.73
2022-11-08T21:27:15.984Z,8.75
2022-11-08T21:29:43.923Z,8.73
2022-11-08T21:32:11.842Z,8.66
2022-11-08T21:34:45.210Z,8.66
2022-11-08T21:37:13.717Z,8.70
2022-11-08T21:39:41.518Z,8.68
2022-11-08T21:42:09.306Z,8.65
2022-11-08T21:44:38.490Z,8.84
2022-11-08T21:47:06.324Z,8.87
2022-11-08T21:49:34.099Z,8.89
2022-11-08T21:52:02.183Z,8.83
2022-11-08T21:54:29.981Z,8.81
2022-11-08T21:56:57.849Z,8.71
2022-11-08T21:59:25.644Z,8.68
2022-11-08T22:01:54.860Z,8.66
2022-11-08T22:04:22.651Z,8.62
2022-11-08T22:06:50.499Z,8.61
2022-11-08T22:09:18.416Z,8.63
2022-11-08T22:11:46.260Z,8.70
2022-11-08T22:14:14.038Z,8.68
2022-11-08T22:16:41.945Z,8.63
2022-11-08T22:19:11.777Z,8.55
2022-11-08T22:21:40.529Z,8.58
2022-11-08T22:24:10.464Z,8.55
2022-11-08T22:26:39.077Z,8.56
2022-11-08T22:29:07.333Z,8.61
2022-11-08T22:31:35.147Z,8.62
2022-11-08T22:34:03.686Z,8.60
2022-11-08T22:36:32.984Z,8.57
2022-11-08T22:39:00.991Z,8.58
2022-11-08T22:41:29.375Z,8.57
2022-11-08T22:43:57.132Z,8.57
2022-11-08T22:46:25.543Z,8.45
2022-11-08T22:48:53.323Z,8.52
2022-11-08T22:51:21.110Z,8.45
2022-11-08T22:53:50.308Z,8.41
2022-11-08T22:56:18.103Z,8.43
2022-11-08T22:58:46.076Z,8.40
2022-11-08T23:01:14.898Z,8.37
2022-11-08T23:03:46.585Z,8.26
2022-11-08T23:06:15.064Z,8.19
2022-11-08T23:08:43.347Z,8.13
2022-11-08T23:11:30.295Z,8.14
2022-11-08T23:14:15.485Z,8.10
2022-11-08T23:16:45.613Z,8.16
2022-11-08T23:19:32.332Z,8.16
2022-11-08T23:22:26.780Z,8.14
2022-11-08T23:24:54.599Z,8.11
2022-11-08T23:27:42.162Z,8.13
2022-11-08T23:30:31.036Z,8.08
2022-11-08T23:32:58.808Z,7.95
2022-11-08T23:35:26.579Z,7.94
2022-11-08T23:37:54.378Z,7.88
2022-11-08T23:40:39.703Z,7.88
2022-11-08T23:43:25.771Z,7.94
2022-11-08T23:45:53.667Z,7.85
2022-11-08T23:48:21.431Z,7.83
2022-11-08T23:50:50.811Z,7.87
2022-11-08T23:53:19.301Z,7.79
2022-11-08T23:55:47.494Z,7.77
2022-11-08T23:58:16.627Z,8.62
